Time;durP1;ratioP1;P1;durP2;ratioP2;P2;SDS_P1;SDS_P2;PMS_P1;PMS_P2;Temp;Humidity;BMP_temperature;BMP_pressure;BME280_temperature;BME280_humidity;BME280_pressure;Samples;Min_cycle;Max_cycle;Signal;HPM_P1;HPM_P2
2022/06/25 00:01:55;;;;;;;12.35;11.05;;;;;;;15.72;100.00;96000.13;10476995;28;20191;-53
2022/06/25 00:06:56;;;;;;;12.38;11.18;;;;;;;15.63;100.00;95999.53;10494256;28;20681;-52
2022/06/25 00:17:15;;;;;;;12.80;11.38;;;;;;;15.67;100.00;95999.94;10494576;28;20198;-52
2022/06/25 00:22:15;;;;;;;11.77;10.52;;;;;;;15.70;100.00;96002.97;10494013;28;20191;-53
2022/06/25 00:27:17;;;;;;;14.40;11.48;;;;;;;15.66;100.00;95991.19;10493992;28;20215;-52
2022/06/25 00:32:17;;;;;;;14.63;10.75;;;;;;;15.77;100.00;95999.50;10493892;28;20665;-53
2022/06/25 00:37:18;;;;;;;11.38;10.15;;;;;;;15.82;100.00;95997.09;10493644;28;20681;-52
2022/06/25 00:42:18;;;;;;;15.93;9.98;;;;;;;15.79;100.00;95989.56;10493656;28;20646;-52
2022/06/25 00:47:18;;;;;;;12.40;11.27;;;;;;;15.63;100.00;95994.25;10475520;28;20190;-53
2022/06/25 00:52:21;;;;;;;13.07;10.90;;;;;;;15.58;100.00;95993.25;10500555;28;20309;-54
2022/06/25 00:57:26;;;;;;;13.10;10.23;;;;;;;15.69;100.00;96001.34;10483849;28;20195;-52
2022/06/25 01:02:27;;;;;;;15.50;9.52;;;;;;;15.74;100.00;95999.91;10500941;28;20286;-52
2022/06/25 01:07:27;;;;;;;14.07;10.38;;;;;;;15.80;100.00;96007.88;10501646;28;20261;-52
2022/06/25 01:12:27;;;;;;;9.85;8.85;;;;;;;15.86;100.00;96003.56;10501083;28;20286;-55
2022/06/25 01:17:29;;;;;;;10.20;9.10;;;;;;;15.83;100.00;96004.81;10483277;28;20191;-53
2022/06/25 01:22:29;;;;;;;11.73;8.90;;;;;;;15.84;100.00;96002.97;10483145;28;20230;-57
2022/06/25 01:27:30;;;;;;;11.60;9.35;;;;;;;15.82;100.00;96005.03;10482620;28;20190;-56
2022/06/25 01:32:30;;;;;;;13.35;9.57;;;;;;;15.75;100.00;96010.28;10482491;28;20231;-56
2022/06/25 01:37:32;;;;;;;11.50;8.93;;;;;;;15.99;100.00;96022.03;10500211;28;20186;-55
2022/06/25 01:47:54;;;;;;;8.57;7.50;;;;;;;16.32;100.00;96005.25;10481267;28;20191;-55
2022/06/25 01:52:54;;;;;;;11.32;7.30;;;;;;;16.68;100.00;95993.28;10499254;28;20222;-53
2022/06/25 01:57:55;;;;;;;10.05;6.45;;;;;;;17.13;100.00;95988.94;10481172;28;20198;-57
2022/06/25 02:02:57;;;;;;;6.95;5.93;;;;;;;17.47;100.00;95985.78;10480460;28;20290;-52
2022/06/25 02:07:58;;;;;;;9.95;6.65;;;;;;;17.60;100.00;95995.44;10497899;28;20270;-54
2022/06/25 02:12:58;;;;;;;7.32;6.35;;;;;;;17.62;100.00;95996.03;10498938;28;20604;-53
2022/06/25 02:17:59;;;;;;;8.27;5.90;;;;;;;17.63;100.00;95999.50;10498872;28;20230;-52
2022/06/25 02:23:00;;;;;;;7.78;5.80;;;;;;;17.68;100.00;96012.09;10498629;28;20294;-53
2022/06/25 02:28:00;;;;;;;8.77;6.20;;;;;;;17.44;100.00;96023.31;10498524;28;20194;-53
2022/06/25 02:33:01;;;;;;;12.32;6.75;;;;;;;17.32;100.00;96027.69;10514031;22;20240;-55
2022/06/25 02:38:01;;;;;;;8.88;6.60;;;;;;;17.33;100.00;96037.22;10456006;28;20191;-58
2022/06/25 02:43:05;;;;;;;14.10;7.00;;;;;;;17.29;100.00;96044.78;10438120;28;20245;-54
2022/06/25 02:48:10;;;;;;;9.02;6.90;;;;;;;17.19;100.00;96052.41;10438235;28;20196;-55
2022/06/25 02:53:11;;;;;;;9.93;6.32;;;;;;;17.14;100.00;96054.09;10438126;28;20601;-58
2022/06/25 03:03:30;;;;;;;14.15;6.07;;;;;;;17.13;100.00;96069.13;10437144;28;20281;-55
2022/06/25 03:08:31;;;;;;;17.20;6.75;;;;;;;17.14;100.00;96084.00;10437638;28;20254;-52
2022/06/25 03:13:34;;;;;;;13.27;8.18;;;;;;;17.11;100.00;96081.78;10454940;28;20223;-54
2022/06/25 03:18:35;;;;;;;16.88;9.10;;;;;;;17.08;100.00;96093.59;10437097;28;20190;-54
2022/06/25 03:23:54;;;;;;;15.63;10.07;;;;;;;17.03;100.00;96101.38;10455286;28;20211;-57
2022/06/25 03:28:55;;;;;;;13.25;9.30;;;;;;;17.06;100.00;96100.94;10437134;28;20658;-53
2022/06/25 03:33:57;;;;;;;10.95;8.98;;;;;;;16.99;100.00;96104.66;10436284;28;20240;-50
2022/06/25 03:39:07;;;;;;;11.93;9.18;;;;;;;16.93;100.00;96111.59;10435997;28;20188;-54
2022/06/25 03:44:10;;;;;;;14.50;9.70;;;;;;;16.89;100.00;96115.69;10436545;28;20720;-54
2022/06/25 03:49:11;;;;;;;14.85;9.10;;;;;;;16.75;100.00;96121.03;10435984;28;20188;-53
2022/06/25 03:54:32;;;;;;;10.65;7.28;;;;;;;16.66;100.00;96135.50;10435707;28;20231;-52
2022/06/25 03:59:32;;;;;;;7.80;6.53;;;;;;;16.69;100.00;96140.38;10435434;28;20195;-53
2022/06/25 04:04:41;;;;;;;12.18;6.95;;;;;;;16.66;100.00;96138.16;10435418;28;20299;-55
2022/06/25 04:09:42;;;;;;;13.13;6.72;;;;;;;16.63;100.00;96150.97;10435452;28;20606;-55
2022/06/25 04:14:42;;;;;;;10.45;6.20;;;;;;;16.66;100.00;96150.53;10437330;28;20357;-56
2022/06/25 04:19:42;;;;;;;7.47;5.38;;;;;;;16.68;100.00;96159.09;10453145;28;20218;-50
2022/06/25 04:24:47;;;;;;;5.60;5.10;;;;;;;16.70;100.00;96163.13;10434063;28;20207;-50
2022/06/25 04:29:47;;;;;;;8.00;5.72;;;;;;;16.60;100.00;96162.78;10434668;28;20662;-53
2022/06/25 04:34:51;;;;;;;10.65;5.07;;;;;;;16.75;100.00;96163.34;10434195;28;20289;-51
2022/06/25 04:39:52;;;;;;;5.55;4.88;;;;;;;16.83;100.00;96170.22;10434019;28;20253;-51
2022/06/25 04:44:53;;;;;;;5.05;4.47;;;;;;;16.84;100.00;96177.13;10453043;28;20261;-55
2022/06/25 04:49:53;;;;;;;6.95;5.13;;;;;;;16.71;100.00;96183.28;10434287;28;20199;-58
2022/06/25 04:54:53;;;;;;;9.73;4.13;;;;;;;16.87;100.00;96182.03;10451930;28;20294;-58
2022/06/25 04:59:55;;;;;;;4.22;3.90;;;;;;;16.88;100.00;96188.97;10433891;28;20192;-58
2022/06/25 05:05:06;;;;;;;4.57;4.05;;;;;;;16.80;100.00;96191.81;10433735;28;20232;-58
2022/06/25 05:10:07;;;;;;;5.82;4.38;;;;;;;16.64;100.00;96198.34;10433712;28;20187;-57
2022/06/25 05:15:08;;;;;;;8.13;3.45;;;;;;;16.66;100.00;96198.16;10433751;28;20219;-55
2022/06/25 05:20:10;;;;;;;5.25;4.03;;;;;;;16.62;100.00;96205.69;10433356;28;20274;-57
2022/06/25 05:25:10;;;;;;;8.52;3.90;;;;;;;16.67;100.00;96219.09;10450078;28;20254;-56
2022/06/25 05:30:11;;;;;;;6.13;3.63;;;;;;;16.81;100.00;96213.78;10433300;28;20219;-56
2022/06/25 05:35:11;;;;;;;4.15;3.75;;;;;;;16.93;100.00;96231.47;10453654;28;20275;-52
2022/06/25 05:40:12;;;;;;;7.85;4.28;;;;;;;16.84;100.00;96230.03;10440611;28;20557;-53
2022/06/25 05:45:12;;;;;;;4.18;3.78;;;;;;;16.78;100.00;96230.88;10440640;28;20200;-49
2022/06/25 05:50:13;;;;;;;4.35;3.65;;;;;;;16.97;100.00;96237.16;10458406;28;20283;-50
2022/06/25 05:55:13;;;;;;;9.32;5.07;;;;;;;16.98;100.00;96241.41;10458091;28;20247;-55
2022/06/25 06:00:14;;;;;;;10.85;5.35;;;;;;;16.55;100.00;96247.19;10458087;28;20188;-52
2022/06/25 06:05:14;;;;;;;10.18;5.75;;;;;;;16.16;100.00;96254.94;10457952;28;20253;-55
2022/06/25 06:10:14;;;;;;;9.95;6.60;;;;;;;16.12;100.00;96255.56;10457821;28;20638;-51
2022/06/25 06:15:15;;;;;;;10.40;7.18;;;;;;;16.07;100.00;96271.22;10457171;28;20734;-53
2022/06/25 06:20:15;;;;;;;9.68;6.88;;;;;;;16.07;100.00;96271.22;10457469;28;20584;-52
2022/06/25 06:25:15;;;;;;;8.25;6.93;;;;;;;16.19;100.00;96285.44;10457007;28;20317;-54
2022/06/25 06:30:16;;;;;;;8.73;7.07;;;;;;;16.07;100.00;96279.16;10457151;28;20695;-54
2022/06/25 06:35:16;;;;;;;9.65;8.18;;;;;;;16.29;100.00;96291.13;10456571;28;20726;-49
2022/06/25 06:40:16;;;;;;;9.63;8.43;;;;;;;16.30;100.00;96290.13;10455999;28;20212;-53
2022/06/25 06:45:17;;;;;;;9.40;8.07;;;;;;;16.43;100.00;96296.44;10456209;28;20211;-49
2022/06/25 06:50:17;;;;;;;9.15;8.10;;;;;;;16.56;100.00;96294.59;10455825;28;20188;-50
2022/06/25 06:55:17;;;;;;;8.52;7.63;;;;;;;16.64;100.00;96295.41;10456083;28;20294;-49
2022/06/25 07:00:18;;;;;;;9.40;7.35;;;;;;;16.86;100.00;96290.69;10455752;28;20188;-55
2022/06/25 07:05:18;;;;;;;7.93;6.93;;;;;;;17.07;100.00;96290.44;10455537;28;20218;-49
2022/06/25 07:10:20;;;;;;;7.68;6.85;;;;;;;17.43;100.00;96293.63;10455244;28;20187;-50
2022/06/25 07:15:21;;;;;;;11.63;6.32;;;;;;;17.69;100.00;96289.19;10454777;28;20641;-51
2022/06/25 07:20:21;;;;;;;9.18;5.88;;;;;;;17.78;100.00;96294.06;10455167;28;20289;-51
2022/06/25 07:25:21;;;;;;;6.82;6.22;;;;;;;18.09;100.00;96289.81;10454620;28;20216;-52
2022/06/25 07:30:22;;;;;;;6.82;5.57;;;;;;;17.56;100.00;96282.94;10454704;28;20227;-57
2022/06/25 07:35:22;;;;;;;6.78;6.07;;;;;;;17.76;100.00;96285.47;10452396;28;20236;-49
2022/06/25 07:40:24;;;;;;;7.53;6.32;;;;;;;17.69;100.00;96286.53;10458861;28;20203;-54
2022/06/25 07:45:24;;;;;;;7.82;6.03;;;;;;;18.12;100.00;96288.59;10495104;28;20199;-52
2022/06/25 07:55:44;;;;;;;7.05;6.32;;;;;;;18.04;100.00;96294.13;10493954;28;20223;-57
2022/06/25 08:00:44;;;;;;;7.32;6.55;;;;;;;18.12;100.00;96281.44;10493431;28;20195;-50
2022/06/25 08:05:46;;;;;;;8.02;6.68;;;;;;;18.29;100.00;96279.06;10494490;28;20211;-53
2022/06/25 08:10:46;;;;;;;7.25;6.57;;;;;;;18.42;100.00;96278.13;10494412;28;20188;-51
2022/06/25 08:15:46;;;;;;;9.02;6.25;;;;;;;18.85;100.00;96295.13;10494128;28;20227;-53
2022/06/25 08:20:47;;;;;;;8.27;6.28;;;;;;;18.93;100.00;96294.03;10494143;28;20202;-50
2022/06/25 08:25:47;;;;;;;6.63;5.55;;;;;;;19.41;100.00;96295.97;10494086;28;20262;-55
2022/06/25 08:30:47;;;;;;;11.45;5.88;;;;;;;19.37;100.00;96310.72;10493990;28;20195;-50
2022/06/25 08:35:48;;;;;;;7.72;5.60;;;;;;;19.87;100.00;96309.72;10499172;22;20335;-52
2022/06/25 08:40:48;;;;;;;9.63;7.03;;;;;;;19.39;100.00;96321.94;10451811;28;20219;-55
2022/06/25 08:45:49;;;;;;;10.38;7.60;;;;;;;19.13;100.00;96323.06;10452264;28;20210;-52
2022/06/25 08:50:50;;;;;;;7.95;7.15;;;;;;;19.25;100.00;96324.75;10452176;28;20576;-57
2022/06/25 08:55:50;;;;;;;8.98;7.07;;;;;;;19.37;100.00;96335.44;10451714;28;20227;-54
2022/06/25 09:00:51;;;;;;;7.82;6.78;;;;;;;19.50;100.00;96337.13;10434446;28;20203;-58
2022/06/25 09:05:51;;;;;;;7.82;6.78;;;;;;;18.85;100.00;96340.25;10451632;28;20234;-55
2022/06/25 09:10:53;;;;;;;8.70;6.72;;;;;;;19.11;100.00;96341.88;10455954;28;20188;-54
2022/06/25 09:15:54;;;;;;;7.70;6.80;;;;;;;19.15;100.00;96340.38;10459511;28;20224;-54
2022/06/25 09:20:59;;;;;;;10.27;8.70;;;;;;;18.65;100.00;96338.56;10459811;28;20196;-52
2022/06/25 09:26:11;;;;;;;11.38;8.07;;;;;;;19.41;100.00;96333.16;10459506;28;20227;-54
2022/06/25 09:31:11;;;;;;;8.90;8.10;;;;;;;19.61;100.00;96341.69;10459290;28;20204;-52
2022/06/25 09:36:11;;;;;;;13.55;8.55;;;;;;;19.39;100.00;96345.84;10458702;28;20243;-52
2022/06/25 09:41:12;;;;;;;8.38;7.43;;;;;;;19.90;100.00;96341.97;10458687;28;20278;-55
2022/06/25 09:46:12;;;;;;;9.82;6.50;;;;;;;20.27;100.00;96339.22;10458734;28;20633;-52
2022/06/25 09:51:20;;;;;;;7.00;6.30;;;;;;;20.70;100.00;96341.88;10458684;28;20572;-55
2022/06/25 09:56:21;;;;;;;10.27;6.45;;;;;;;21.08;100.00;96343.28;10458174;28;20281;-55
2022/06/25 10:01:24;;;;;;;7.47;6.22;;;;;;;21.32;98.71;96342.22;10458108;28;20734;-54
2022/06/25 10:06:25;;;;;;;7.00;6.30;;;;;;;21.23;99.38;96343.63;10457927;28;20281;-55
2022/06/25 10:11:28;;;;;;;8.23;7.43;;;;;;;21.48;98.14;96350.53;10457926;28;20188;-56
2022/06/25 10:16:29;;;;;;;7.82;7.13;;;;;;;21.00;99.45;96352.44;10457343;28;20231;-55
2022/06/25 10:21:29;;;;;;;8.90;7.63;;;;;;;21.03;100.00;96366.09;10456781;28;20195;-56
2022/06/25 10:26:30;;;;;;;9.27;8.07;;;;;;;21.23;99.71;96356.94;10457010;28;20227;-57
2022/06/25 10:31:30;;;;;;;11.80;7.78;;;;;;;21.15;100.00;96351.97;10439508;28;20196;-55
2022/06/25 10:36:40;;;;;;;9.00;8.20;;;;;;;21.40;96.92;96350.91;10456496;28;20307;-55
2022/06/25 10:47:48;;;;;;;9.55;7.78;;;;;;;20.09;100.00;96348.09;10456343;28;20220;-58
2022/06/25 10:53:03;;;;;;;10.73;7.85;;;;;;;20.24;100.00;96352.97;10456342;28;20220;-54
2022/06/25 10:58:15;;;;;;;6.80;6.10;;;;;;;20.74;100.00;96343.84;10455645;28;20302;-56
2022/06/25 11:03:16;;;;;;;6.03;5.43;;;;;;;21.24;97.82;96345.25;10456023;28;20275;-54
2022/06/25 11:08:16;;;;;;;8.43;5.97;;;;;;;21.53;95.45;96332.81;10455641;28;20704;-59
2022/06/25 11:13:23;;;;;;;7.32;5.63;;;;;;;21.04;99.22;96345.59;10455305;28;20230;-59
2022/06/25 11:18:23;;;;;;;7.40;6.43;;;;;;;21.27;97.44;96339.44;10455310;28;20187;-60
2022/06/25 11:23:25;;;;;;;6.78;5.30;;;;;;;21.86;92.08;96338.53;10454834;28;20196;-60
2022/06/25 11:33:45;;;;;;;5.47;4.97;;;;;;;22.22;90.44;96344.50;10454091;28;20332;-59
2022/06/25 11:38:54;;;;;;;10.80;5.55;;;;;;;21.36;91.45;96347.88;10454215;28;20659;-59
2022/06/25 11:43:55;;;;;;;10.38;4.95;;;;;;;21.60;94.08;96364.69;10454302;28;20204;-57
2022/06/25 11:48:57;;;;;;;5.32;4.43;;;;;;;21.86;92.83;96355.31;10436329;28;20192;-60
2022/06/25 11:54:04;;;;;;;5.13;4.63;;;;;;;21.93;93.75;96357.88;10453811;28;20603;-59
2022/06/25 11:59:04;;;;;;;5.35;4.85;;;;;;;21.63;92.64;96366.06;10453516;28;20283;-55
2022/06/25 12:04:04;;;;;;;4.90;4.10;;;;;;;22.35;90.74;96344.25;10453336;28;20303;-59
2022/06/25 12:09:05;;;;;;;4.65;4.25;;;;;;;21.90;92.99;96353.00;10453274;28;20192;-58
2022/06/25 12:14:05;;;;;;;6.57;4.45;;;;;;;22.04;91.50;96353.53;10453032;28;20224;-54
2022/06/25 12:19:05;;;;;;;4.03;3.63;;;;;;;22.64;85.93;96340.72;10452988;28;20196;-57
2022/06/25 12:24:07;;;;;;;4.22;3.80;;;;;;;23.03;83.55;96336.22;10452697;28;20214;-53
2022/06/25 12:29:15;;;;;;;4.75;3.80;;;;;;;22.23;85.80;96338.94;10421531;28;20226;-53
2022/06/25 12:34:15;;;;;;;4.28;3.80;;;;;;;22.54;83.55;96347.50;10411143;28;20232;-56
2022/06/25 12:39:35;;;;;;;6.68;3.97;;;;;;;23.07;82.19;96340.03;10410860;28;20188;-57
2022/06/25 12:44:37;;;;;;;4.18;3.50;;;;;;;23.21;80.80;96323.69;10410191;28;20698;-57
2022/06/25 12:49:42;;;;;;;4.50;3.47;;;;;;;23.25;80.45;96328.28;10410753;28;20197;-57
2022/06/25 12:54:51;;;;;;;5.85;3.13;;;;;;;23.09;81.86;96343.31;10410931;28;20224;-56
2022/06/25 12:59:52;;;;;;;2.78;2.58;;;;;;;24.35;75.68;96311.34;10393361;28;20246;-53
2022/06/25 13:04:52;;;;;;;3.70;2.70;;;;;;;24.53;74.23;96310.16;10410545;28;20288;-54
2022/06/25 13:09:52;;;;;;;4.05;2.50;;;;;;;25.46;69.84;96289.31;10410623;28;20663;-53
2022/06/25 13:14:53;;;;;;;5.43;2.73;;;;;;;25.46;65.35;96235.69;10410374;28;20248;-57
2022/06/25 13:19:53;;;;;;;4.25;2.28;;;;;;;25.16;71.69;96314.91;10410384;28;20435;-56
2022/06/25 13:24:54;;;;;;;2.37;2.00;;;;;;;26.15;62.07;96207.63;10410367;28;20647;-53
2022/06/25 13:29:54;;;;;;;2.28;2.05;;;;;;;26.98;61.52;96219.06;10410173;28;20805;-53
2022/06/25 13:34:55;;;;;;;3.27;1.97;;;;;;;27.08;58.76;96177.91;10409824;28;20232;-54
2022/06/25 13:39:56;;;;;;;2.10;1.98;;;;;;;27.61;58.81;96195.41;10409600;28;20490;-55
2022/06/25 13:44:56;;;;;;;2.80;2.00;;;;;;;28.32;59.00;96220.25;10409927;28;20625;-54
2022/06/25 13:49:57;;;;;;;2.63;1.60;;;;;;;27.49;58.65;96209.19;10409854;28;20804;-54
2022/06/25 13:54:57;;;;;;;2.77;1.93;;;;;;;28.50;56.91;96191.78;10409594;28;20235;-56
2022/06/25 13:59:57;;;;;;;1.80;1.70;;;;;;;28.48;57.26;96210.94;10416284;28;20442;-57
2022/06/25 14:04:58;;;;;;;6.07;2.00;;;;;;;28.49;54.80;96174.81;10417004;28;20287;-56
2022/06/25 14:09:58;;;;;;;4.72;2.20;;;;;;;28.74;55.59;96187.25;10416657;28;20825;-56
2022/06/25 14:14:59;;;;;;;5.17;1.77;;;;;;;28.86;53.99;96151.81;10416634;28;20224;-57
2022/06/25 14:20:01;;;;;;;1.63;1.50;;;;;;;28.32;56.53;96207.59;10416500;28;20538;-55
2022/06/25 14:25:20;;;;;;;4.82;1.95;;;;;;;27.95;55.80;96179.31;10416128;28;20973;-59
2022/06/25 14:30:21;;;;;;;3.00;2.10;;;;;;;26.27;59.99;96231.53;10415816;28;20655;-58
2022/06/25 14:35:21;;;;;;;3.95;2.30;;;;;;;26.77;58.58;96217.53;10439340;23;20232;-56
2022/06/25 14:45:41;;;;;;;2.17;1.60;;;;;;;26.76;59.17;96218.63;10498053;28;20223;-54
2022/06/25 14:50:41;;;;;;;3.33;2.10;;;;;;;26.36;59.59;96212.22;10497360;28;20677;-54
2022/06/25 14:55:41;;;;;;;3.17;2.10;;;;;;;26.10;60.98;96239.84;10497565;28;20858;-52
2022/06/25 15:00:42;;;;;;;2.75;2.40;;;;;;;26.34;61.07;96229.38;10497042;28;20833;-54
2022/06/25 15:05:42;;;;;;;2.67;2.30;;;;;;;26.61;61.42;96240.91;10497029;28;20286;-55
2022/06/25 15:10:42;;;;;;;4.82;2.13;;;;;;;27.31;58.19;96189.91;10496457;28;20191;-54
2022/06/25 15:15:43;;;;;;;2.77;1.93;;;;;;;27.89;57.99;96199.28;10496349;28;20215;-54
2022/06/25 15:20:44;;;;;;;5.10;1.80;;;;;;;30.84;49.58;96109.53;10496455;28;20503;-51
2022/06/25 15:25:44;;;;;;;2.17;1.50;;;;;;;31.10;48.98;96111.75;10496106;28;20683;-51
2022/06/25 15:30:44;;;;;;;2.83;1.90;;;;;;;30.36;50.54;96126.94;10495959;28;20859;-54
2022/06/25 15:35:45;;;;;;;2.80;2.00;;;;;;;28.31;53.65;96124.34;10495654;28;20263;-54
2022/06/25 15:40:45;;;;;;;4.13;2.10;;;;;;;26.64;57.49;96163.25;10537571;28;20447;-56
2022/06/25 15:45:46;;;;;;;4.60;2.30;;;;;;;25.85;62.45;96229.06;10537276;28;20289;-58
2022/06/25 15:50:46;;;;;;;3.10;2.10;;;;;;;25.92;64.20;96251.88;10537095;28;20432;-58
2022/06/25 15:55:46;;;;;;;2.30;2.10;;;;;;;26.17;61.59;96226.97;10536994;28;20222;-57
2022/06/25 16:00:47;;;;;;;3.33;2.40;;;;;;;26.77;59.71;96206.78;10536923;28;20478;-52
2022/06/25 16:05:47;;;;;;;3.43;2.03;;;;;;;27.30;57.77;96195.56;10536416;28;20441;-55
2022/06/25 16:10:47;;;;;;;4.15;1.98;;;;;;;27.21;59.05;96206.09;10536545;28;20491;-52
2022/06/25 16:15:48;;;;;;;4.87;2.27;;;;;;;27.76;58.07;96201.53;10536336;28;20233;-56
2022/06/25 16:20:48;;;;;;;2.40;2.20;;;;;;;26.44;59.66;96208.97;10535438;28;20441;-58
2022/06/25 16:25:48;;;;;;;2.55;2.10;;;;;;;26.78;60.37;96219.94;10536121;28;20479;-58
2022/06/25 16:30:49;;;;;;;2.75;1.92;;;;;;;27.06;58.69;96188.16;10535595;28;20563;-58
2022/06/25 16:35:49;;;;;;;5.20;2.27;;;;;;;27.32;57.88;96194.25;10535356;28;20238;-58
2022/06/25 16:40:49;;;;;;;3.30;2.27;;;;;;;26.86;59.09;96195.19;10533443;28;20898;-58
2022/06/25 16:45:50;;;;;;;2.43;2.23;;;;;;;26.72;58.75;96196.84;10534863;28;20992;-58
2022/06/25 16:50:50;;;;;;;2.30;2.10;;;;;;;26.74;57.97;96175.06;10535281;28;20828;-53
2022/06/25 16:55:50;;;;;;;3.47;2.63;;;;;;;26.64;60.09;96210.81;10534451;28;21201;-58
2022/06/25 17:00:51;;;;;;;3.47;2.50;;;;;;;25.69;60.45;96190.66;10535060;28;20930;-57
2022/06/25 17:05:52;;;;;;;4.00;2.38;;;;;;;25.59;61.69;96213.72;10534381;28;20447;-56
2022/06/25 17:10:52;;;;;;;4.95;2.30;;;;;;;25.28;64.15;96240.44;10534891;28;20195;-56
2022/06/25 17:15:53;;;;;;;3.25;2.63;;;;;;;25.17;62.48;96216.50;10534488;28;20222;-54
2022/06/25 17:20:54;;;;;;;4.20;2.47;;;;;;;25.24;62.69;96220.56;10534244;28;20215;-52
2022/06/25 17:25:55;;;;;;;2.65;2.30;;;;;;;25.02;66.60;96271.66;10534533;28;20211;-50
2022/06/25 17:30:55;;;;;;;4.07;2.97;;;;;;;24.30;71.17;96299.78;10536488;28;20210;-50
2022/06/25 17:35:56;;;;;;;2.60;2.40;;;;;;;24.55;73.45;96315.25;10525971;28;20237;-54
2022/06/25 17:40:56;;;;;;;4.28;2.70;;;;;;;24.00;76.80;96323.31;10521184;28;20198;-50
2022/06/25 17:45:56;;;;;;;3.70;2.55;;;;;;;23.15;78.52;96310.25;10540434;28;20267;-53
2022/06/25 17:50:57;;;;;;;6.55;3.17;;;;;;;22.98;82.69;96320.13;10541958;28;20197;-50
2022/06/25 17:55:57;;;;;;;6.93;3.60;;;;;;;22.83;84.70;96331.38;10541514;28;20226;-57
2022/06/25 18:00:58;;;;;;;5.07;3.67;;;;;;;22.88;82.33;96330.66;10541673;28;20194;-50
2022/06/25 18:05:58;;;;;;;3.70;3.40;;;;;;;22.92;81.24;96329.91;10540895;28;20234;-51
2022/06/25 18:11:15;;;;;;;7.40;3.60;;;;;;;22.82;82.97;96337.81;10541060;28;20197;-55
2022/06/25 18:16:15;;;;;;;4.20;3.80;;;;;;;22.07;86.99;96342.38;10540823;28;20222;-50
2022/06/25 18:21:16;;;;;;;4.53;4.13;;;;;;;22.17;90.10;96352.44;10540361;28;20187;-53
2022/06/25 18:26:16;;;;;;;5.30;3.75;;;;;;;22.36;87.01;96339.69;10540186;28;20221;-54
2022/06/25 18:31:18;;;;;;;5.78;4.40;;;;;;;22.22;88.92;96347.16;10539624;28;20228;-58
2022/06/25 18:36:19;;;;;;;6.03;4.70;;;;;;;22.21;92.97;96353.56;10539212;28;20830;-57
2022/06/25 18:41:19;;;;;;;5.50;4.03;;;;;;;22.06;95.84;96360.22;10526415;28;20354;-57
2022/06/25 18:46:19;;;;;;;8.00;4.85;;;;;;;21.59;98.43;96354.25;10494252;28;20207;-53
2022/06/25 18:51:20;;;;;;;7.78;4.20;;;;;;;21.73;100.00;96364.41;10496308;28;20245;-54
2022/06/25 18:56:22;;;;;;;7.90;4.07;;;;;;;21.60;100.00;96375.34;10495730;28;20235;-54
2022/06/25 19:01:23;;;;;;;5.30;4.40;;;;;;;20.71;100.00;96372.78;10497091;28;20605;-54
2022/06/25 19:06:25;;;;;;;7.13;4.80;;;;;;;20.14;100.00;96377.47;10496658;28;20268;-54
2022/06/25 19:11:26;;;;;;;7.63;5.82;;;;;;;20.37;100.00;96378.59;10496292;28;20202;-55
2022/06/25 19:16:27;;;;;;;5.80;5.30;;;;;;;20.66;100.00;96382.25;10496298;28;20223;-51
2022/06/25 19:21:29;;;;;;;7.45;6.00;;;;;;;20.42;100.00;96388.53;10495855;28;20676;-52
2022/06/25 19:26:29;;;;;;;6.00;5.45;;;;;;;20.27;100.00;96392.41;10495821;28;20203;-55
2022/06/25 19:31:30;;;;;;;11.32;5.50;;;;;;;19.99;100.00;96389.53;10495731;28;20681;-53
2022/06/25 19:36:32;;;;;;;6.47;5.38;;;;;;;20.12;100.00;96397.31;10494875;28;20242;-50
2022/06/25 19:41:33;;;;;;;8.57;5.68;;;;;;;19.79;100.00;96401.22;10495029;28;20187;-50
2022/06/25 19:46:37;;;;;;;6.03;5.30;;;;;;;19.51;100.00;96404.34;10494677;28;20697;-53
2022/06/25 19:51:38;;;;;;;7.68;5.40;;;;;;;19.65;100.00;96403.19;10495097;28;20188;-53
2022/06/25 19:56:38;;;;;;;6.65;5.50;;;;;;;19.45;100.00;96406.06;10494414;28;20219;-52
2022/06/25 20:01:38;;;;;;;5.43;4.93;;;;;;;19.34;100.00;96409.44;10494504;28;20191;-50
2022/06/25 20:06:39;;;;;;;6.22;5.43;;;;;;;19.42;100.00;96412.63;10492935;28;20207;-53
2022/06/25 20:11:39;;;;;;;7.50;5.68;;;;;;;19.53;100.00;96410.28;10494424;28;20191;-50
2022/06/25 20:16:40;;;;;;;6.88;5.65;;;;;;;19.21;100.00;96402.44;10494208;28;20292;-54
2022/06/25 20:21:40;;;;;;;6.20;5.60;;;;;;;19.19;100.00;96405.28;10493874;28;20213;-54
2022/06/25 20:26:40;;;;;;;8.02;6.45;;;;;;;19.00;100.00;96406.28;10493747;28;20226;-50
2022/06/25 20:31:41;;;;;;;8.65;6.88;;;;;;;18.63;100.00;96406.94;10494765;28;20203;-56
2022/06/25 20:36:41;;;;;;;8.57;7.32;;;;;;;18.68;100.00;96412.44;10492974;28;20230;-56
2022/06/25 20:41:41;;;;;;;14.23;7.82;;;;;;;18.46;100.00;96413.81;10493278;28;20202;-51
2022/06/25 20:46:42;;;;;;;9.18;8.07;;;;;;;18.50;100.00;96404.41;10492929;28;20568;-54
2022/06/25 20:51:42;;;;;;;9.88;8.25;;;;;;;18.49;100.00;96400.09;10493693;28;20635;-55
2022/06/25 20:56:42;;;;;;;10.20;9.30;;;;;;;18.38;100.00;96404.25;10492939;28;20583;-53
2022/06/25 21:01:43;;;;;;;9.65;8.60;;;;;;;18.34;100.00;96392.44;10493144;28;20543;-49
2022/06/25 21:12:03;;;;;;;10.02;9.02;;;;;;;18.21;100.00;96397.81;10501363;28;20194;-51
2022/06/25 21:17:04;;;;;;;10.80;9.80;;;;;;;17.92;100.00;96395.53;10500958;28;20705;-49
2022/06/25 21:22:05;;;;;;;10.95;9.95;;;;;;;17.86;100.00;96396.34;10501098;28;20195;-51
2022/06/25 21:27:10;;;;;;;19.77;10.15;;;;;;;17.67;100.00;96399.88;10500538;28;20257;-49
2022/06/25 21:32:10;;;;;;;12.45;11.25;;;;;;;17.45;100.00;96395.66;10500507;28;20648;-49
2022/06/25 21:37:11;;;;;;;11.52;10.40;;;;;;;17.45;100.00;96398.28;10499912;28;20321;-50
2022/06/25 21:42:11;;;;;;;12.80;11.30;;;;;;;17.44;100.00;96399.34;10499862;28;20187;-49
2022/06/25 21:47:12;;;;;;;12.80;11.57;;;;;;;17.42;100.00;96400.56;10499907;28;20222;-49
2022/06/25 21:52:12;;;;;;;13.43;12.02;;;;;;;17.36;100.00;96411.97;10499780;28;20716;-49
2022/06/25 21:57:12;;;;;;;12.93;11.63;;;;;;;17.31;100.00;96409.94;10499592;28;20693;-49
2022/06/25 22:02:13;;;;;;;13.38;10.88;;;;;;;17.23;100.00;96402.22;10499363;28;20726;-50
2022/06/25 22:07:13;;;;;;;13.65;11.80;;;;;;;17.09;100.00;96412.81;10499317;28;20580;-49
2022/06/25 22:12:13;;;;;;;12.85;11.68;;;;;;;17.06;100.00;96407.09;10498802;28;20592;-49
2022/06/25 22:17:14;;;;;;;14.80;13.23;;;;;;;16.96;100.00;96407.53;10497574;28;20219;-50
2022/06/25 22:22:14;;;;;;;14.98;13.57;;;;;;;17.01;100.00;96409.56;10498720;28;20272;-49
2022/06/25 22:27:15;;;;;;;15.00;13.70;;;;;;;16.97;100.00;96405.69;10498205;28;20219;-51
2022/06/25 22:32:15;;;;;;;13.63;12.27;;;;;;;16.91;100.00;96410.00;10496810;28;20213;-51
2022/06/25 22:37:15;;;;;;;14.90;13.20;;;;;;;16.77;100.00;96411.78;10497456;28;20273;-49
2022/06/25 22:42:16;;;;;;;15.27;13.73;;;;;;;16.77;100.00;96415.25;10497688;28;20249;-50
2022/06/25 22:47:16;;;;;;;15.82;14.38;;;;;;;16.73;100.00;96419.28;10497553;28;20215;-49
2022/06/25 22:52:16;;;;;;;17.60;13.27;;;;;;;16.63;100.00;96424.19;10497322;28;20272;-49
2022/06/25 22:57:17;;;;;;;17.60;14.43;;;;;;;16.58;100.00;96416.88;10497293;28;20341;-49
2022/06/25 23:02:18;;;;;;;18.30;15.13;;;;;;;16.49;100.00;96417.25;10496956;28;20191;-51
2022/06/25 23:07:18;;;;;;;17.13;15.52;;;;;;;16.46;100.00;96412.34;10497094;28;20218;-49
2022/06/25 23:12:19;;;;;;;18.08;16.33;;;;;;;16.45;100.00;96408.91;10496583;28;20197;-49
2022/06/25 23:17:20;;;;;;;18.48;16.67;;;;;;;16.41;100.00;96412.97;10496352;28;20268;-51
2022/06/25 23:22:21;;;;;;;19.63;16.33;;;;;;;16.34;100.00;96415.59;10496474;28;20290;-51
2022/06/25 23:27:21;;;;;;;18.85;16.95;;;;;;;16.22;100.00;96407.44;10495720;28;20207;-51
2022/06/25 23:32:22;;;;;;;20.25;18.20;;;;;;;16.12;100.00;96412.28;10495849;28;20191;-50
2022/06/25 23:37:23;;;;;;;19.17;17.05;;;;;;;16.13;100.00;96416.56;10495421;28;20231;-49
2022/06/25 23:42:23;;;;;;;21.50;17.38;;;;;;;16.09;100.00;96419.78;10495079;28;20191;-49
2022/06/25 23:47:23;;;;;;;18.67;16.73;;;;;;;16.13;100.00;96421.84;10495121;28;20210;-49